This is the latest recevied weather packets stored in our database for station/object N4ZIQ. If no packets are shown the sender has not sent any weather packets the latest 10 day(s).
| Time | Temp. | Humidity | Pressure | Rain* | Wind** | Luminosity | Snow |
|---|---|---|---|---|---|---|---|
| 1777402545 | 29.44° C | 60% | 1019.1 hPa | 0 mm | - | 963 W/m² | - |
| 1777402245 | 28.89° C | 59% | 1019.2 hPa | 0 mm | - | 923 W/m² | - |
| 1777401953 | 28.33° C | 62% | 1019.2 hPa | 0 mm | - | 206 W/m² | - |
| 1777401646 | 29.44° C | 63% | 1019.1 hPa | 0 mm | - | 951 W/m² | - |
| 1777401345 | 28.33° C | 61% | 1019.1 hPa | 0 mm | - | 211 W/m² | - |
| 1777401050 | 29.44° C | 61% | 1019.2 hPa | 0 mm | - | 1027 W/m² | - |
| 1777400745 | 29.44° C | 60% | 1019.1 hPa | 0 mm | - | 1060 W/m² | - |
| 1777400445 | 29.44° C | 61% | 1019.2 hPa | 0 mm | - | 916 W/m² | - |
| 1777400152 | 28.33° C | 62% | 1019.2 hPa | 0 mm | - | 302 W/m² | - |
| 1777399845 | 29.44° C | 61% | 1019.2 hPa | 0 mm | - | 1042 W/m² | - |
| 1777399546 | 29.44° C | 61% | 1019.2 hPa | 0 mm | - | 1046 W/m² | - |
| 1777399255 | 30° C | 62% | 1019.3 hPa | 0 mm | - | 1025 W/m² | - |
| 1777398946 | 28.89° C | 61% | 1019.4 hPa | 0 mm | - | 956 W/m² | - |
| 1777398647 | 28.33° C | 65% | 1019.4 hPa | 0 mm | - | 979 W/m² | - |
| 1777398352 | 28.33° C | 62% | 1019.3 hPa | 0 mm | - | 299 W/m² | - |
| 1777398045 | 28.89° C | 61% | 1019.3 hPa | 0 mm | - | 202 W/m² | - |
| 1777397745 | 28.89° C | 63% | 1019.4 hPa | 0 mm | - | 984 W/m² | - |
| 1777397460 | 28.89° C | 63% | 1019.5 hPa | 0 mm | - | 1009 W/m² | - |
| 1777397145 | 29.44° C | 60% | 1019.6 hPa | 0 mm | - | 1025 W/m² | - |
| 1777396846 | 28.89° C | 64% | 1019.6 hPa | 0 mm | - | 981 W/m² | - |
| 1777396566 | 28.33° C | 64% | 1019.6 hPa | 0 mm | - | 232 W/m² | - |
| 1777396246 | 29.44° C | 62% | 1019.7 hPa | 0 mm | - | 399 W/m² | - |
| 1777395945 | 29.44° C | 63% | 1019.8 hPa | 0 mm | - | 1058 W/m² | - |
| 1777395652 | 28.89° C | 63% | 1019.9 hPa | 0 mm | - | 1071 W/m² | - |
| 1777395345 | 28.33° C | 64% | 1019.9 hPa | 0 mm | - | 503 W/m² | - |
* Rain latest hour (hover to see other rain measurements)
** Current wind speed in m/s (hover to see current wind gust speed)